sensor_id;sensor_type;location;lat;lon;timestamp;P1;durP1;ratioP1;P2;durP2;ratioP2
1136;SDS011;557;48.466;7.950;2023-06-10T00:00:58;22.33;;;21.03;;
1136;SDS011;557;48.466;7.950;2023-06-10T00:03:45;21.50;;;20.30;;
1136;SDS011;557;48.466;7.950;2023-06-10T00:06:32;22.60;;;21.20;;
1136;SDS011;557;48.466;7.950;2023-06-10T00:09:22;21.50;;;20.30;;
1136;SDS011;557;48.466;7.950;2023-06-10T00:12:11;21.97;;;20.77;;
1136;SDS011;557;48.466;7.950;2023-06-10T00:14:58;22.30;;;21.00;;
1136;SDS011;557;48.466;7.950;2023-06-10T00:17:45;21.53;;;20.33;;
1136;SDS011;557;48.466;7.950;2023-06-10T00:20:33;21.67;;;20.37;;
1136;SDS011;557;48.466;7.950;2023-06-10T00:23:21;21.70;;;20.40;;
1136;SDS011;557;48.466;7.950;2023-06-10T00:26:12;21.40;;;20.20;;
1136;SDS011;557;48.466;7.950;2023-06-10T00:28:59;21.30;;;20.10;;
1136;SDS011;557;48.466;7.950;2023-06-10T00:31:46;21.70;;;20.50;;
1136;SDS011;557;48.466;7.950;2023-06-10T00:34:34;21.50;;;20.30;;
1136;SDS011;557;48.466;7.950;2023-06-10T00:37:21;21.20;;;20.00;;
1136;SDS011;557;48.466;7.950;2023-06-10T00:40:09;21.60;;;20.30;;
1136;SDS011;557;48.466;7.950;2023-06-10T00:42:58;21.33;;;20.10;;
1136;SDS011;557;48.466;7.950;2023-06-10T00:45:46;21.33;;;20.07;;
1136;SDS011;557;48.466;7.950;2023-06-10T00:48:33;21.33;;;20.03;;
1136;SDS011;557;48.466;7.950;2023-06-10T00:51:21;21.23;;;20.10;;
1136;SDS011;557;48.466;7.950;2023-06-10T00:54:09;21.40;;;20.17;;
1136;SDS011;557;48.466;7.950;2023-06-10T00:56:59;21.43;;;20.23;;
1136;SDS011;557;48.466;7.950;2023-06-10T00:59:49;21.17;;;19.87;;
1136;SDS011;557;48.466;7.950;2023-06-10T01:02:36;20.83;;;19.63;;
1136;SDS011;557;48.466;7.950;2023-06-10T01:05:23;20.50;;;19.30;;
1136;SDS011;557;48.466;7.950;2023-06-10T01:08:13;20.30;;;19.20;;
1136;SDS011;557;48.466;7.950;2023-06-10T01:11:07;20.60;;;19.40;;
1136;SDS011;557;48.466;7.950;2023-06-10T01:14:00;20.87;;;19.57;;
1136;SDS011;557;48.466;7.950;2023-06-10T01:16:52;20.50;;;19.30;;
1136;SDS011;557;48.466;7.950;2023-06-10T01:19:39;20.43;;;19.27;;
1136;SDS011;557;48.466;7.950;2023-06-10T01:22:30;19.90;;;18.50;;
1136;SDS011;557;48.466;7.950;2023-06-10T01:25:22;20.00;;;18.80;;
1136;SDS011;557;48.466;7.950;2023-06-10T01:28:14;19.37;;;18.23;;
1136;SDS011;557;48.466;7.950;2023-06-10T01:31:07;19.37;;;18.27;;
1136;SDS011;557;48.466;7.950;2023-06-10T01:34:00;19.40;;;18.30;;
1136;SDS011;557;48.466;7.950;2023-06-10T01:36:49;19.70;;;18.60;;
1136;SDS011;557;48.466;7.950;2023-06-10T01:39:38;19.77;;;18.67;;
1136;SDS011;557;48.466;7.950;2023-06-10T01:42:27;19.60;;;18.30;;
1136;SDS011;557;48.466;7.950;2023-06-10T01:45:15;18.50;;;17.40;;
1136;SDS011;557;48.466;7.950;2023-06-10T01:48:03;19.10;;;18.00;;
1136;SDS011;557;48.466;7.950;2023-06-10T01:50:51;18.53;;;17.50;;
1136;SDS011;557;48.466;7.950;2023-06-10T01:53:38;18.93;;;17.83;;
1136;SDS011;557;48.466;7.950;2023-06-10T01:56:27;18.70;;;17.60;;
1136;SDS011;557;48.466;7.950;2023-06-10T01:59:14;19.60;;;18.20;;
1136;SDS011;557;48.466;7.950;2023-06-10T02:02:01;18.20;;;17.20;;
1136;SDS011;557;48.466;7.950;2023-06-10T02:04:49;18.30;;;17.00;;
1136;SDS011;557;48.466;7.950;2023-06-10T02:07:36;18.63;;;17.33;;
1136;SDS011;557;48.466;7.950;2023-06-10T02:10:24;17.93;;;16.73;;
1136;SDS011;557;48.466;7.950;2023-06-10T02:13:13;18.40;;;17.20;;
1136;SDS011;557;48.466;7.950;2023-06-10T02:16:00;18.80;;;17.03;;
1136;SDS011;557;48.466;7.950;2023-06-10T02:18:48;18.60;;;17.50;;
1136;SDS011;557;48.466;7.950;2023-06-10T02:21:35;18.83;;;17.63;;
1136;SDS011;557;48.466;7.950;2023-06-10T02:24:22;18.53;;;17.10;;
1136;SDS011;557;48.466;7.950;2023-06-10T02:27:10;17.50;;;16.50;;
1136;SDS011;557;48.466;7.950;2023-06-10T02:29:59;17.73;;;16.53;;
1136;SDS011;557;48.466;7.950;2023-06-10T02:32:46;18.63;;;17.50;;
1136;SDS011;557;48.466;7.950;2023-06-10T02:35:34;18.67;;;17.47;;
1136;SDS011;557;48.466;7.950;2023-06-10T02:38:22;17.70;;;16.60;;
1136;SDS011;557;48.466;7.950;2023-06-10T02:41:09;18.20;;;17.10;;
1136;SDS011;557;48.466;7.950;2023-06-10T02:43:56;18.20;;;17.10;;
1136;SDS011;557;48.466;7.950;2023-06-10T02:46:45;17.10;;;16.10;;
1136;SDS011;557;48.466;7.950;2023-06-10T02:49:33;17.07;;;16.07;;
1136;SDS011;557;48.466;7.950;2023-06-10T02:52:20;18.17;;;17.07;;
1136;SDS011;557;48.466;7.950;2023-06-10T02:55:08;16.70;;;15.60;;
1136;SDS011;557;48.466;7.950;2023-06-10T02:57:56;17.10;;;16.03;;
1136;SDS011;557;48.466;7.950;2023-06-10T03:00:43;16.47;;;15.40;;
1136;SDS011;557;48.466;7.950;2023-06-10T03:03:32;16.70;;;15.60;;
1136;SDS011;557;48.466;7.950;2023-06-10T03:06:20;16.77;;;15.70;;
1136;SDS011;557;48.466;7.950;2023-06-10T03:09:09;16.27;;;15.17;;
1136;SDS011;557;48.466;7.950;2023-06-10T03:11:57;16.60;;;15.60;;
1136;SDS011;557;48.466;7.950;2023-06-10T03:14:44;17.83;;;16.53;;
1136;SDS011;557;48.466;7.950;2023-06-10T03:17:31;16.00;;;14.90;;
1136;SDS011;557;48.466;7.950;2023-06-10T03:20:20;15.27;;;14.27;;
1136;SDS011;557;48.466;7.950;2023-06-10T03:23:08;15.60;;;14.60;;
1136;SDS011;557;48.466;7.950;2023-06-10T03:25:56;16.07;;;14.93;;
1136;SDS011;557;48.466;7.950;2023-06-10T03:28:43;15.40;;;14.30;;
1136;SDS011;557;48.466;7.950;2023-06-10T03:31:30;16.37;;;15.27;;
1136;SDS011;557;48.466;7.950;2023-06-10T03:34:18;16.07;;;14.97;;
1136;SDS011;557;48.466;7.950;2023-06-10T03:37:07;14.90;;;13.80;;
1136;SDS011;557;48.466;7.950;2023-06-10T03:39:54;14.97;;;13.87;;
1136;SDS011;557;48.466;7.950;2023-06-10T03:42:41;14.90;;;13.90;;
1136;SDS011;557;48.466;7.950;2023-06-10T03:45:29;13.97;;;12.97;;
1136;SDS011;557;48.466;7.950;2023-06-10T03:48:17;15.23;;;14.03;;
1136;SDS011;557;48.466;7.950;2023-06-10T03:51:05;14.40;;;13.40;;
1136;SDS011;557;48.466;7.950;2023-06-10T03:53:54;14.23;;;13.20;;
1136;SDS011;557;48.466;7.950;2023-06-10T03:56:41;13.80;;;12.80;;
1136;SDS011;557;48.466;7.950;2023-06-10T03:59:28;15.00;;;13.90;;
1136;SDS011;557;48.466;7.950;2023-06-10T04:02:16;13.73;;;12.73;;
1136;SDS011;557;48.466;7.950;2023-06-10T04:05:03;15.10;;;13.90;;
1136;SDS011;557;48.466;7.950;2023-06-10T04:07:51;15.07;;;14.07;;
1136;SDS011;557;48.466;7.950;2023-06-10T04:10:40;15.30;;;14.10;;
1136;SDS011;557;48.466;7.950;2023-06-10T04:13:27;14.90;;;13.87;;
1136;SDS011;557;48.466;7.950;2023-06-10T04:16:15;15.13;;;13.83;;
1136;SDS011;557;48.466;7.950;2023-06-10T04:19:03;14.77;;;13.67;;
1136;SDS011;557;48.466;7.950;2023-06-10T04:21:51;14.67;;;13.57;;
1136;SDS011;557;48.466;7.950;2023-06-10T04:24:38;14.43;;;13.33;;
1136;SDS011;557;48.466;7.950;2023-06-10T04:27:27;13.93;;;13.03;;
1136;SDS011;557;48.466;7.950;2023-06-10T04:30:15;14.20;;;13.10;;
1136;SDS011;557;48.466;7.950;2023-06-10T04:33:03;13.27;;;12.27;;
1136;SDS011;557;48.466;7.950;2023-06-10T04:35:53;14.00;;;12.93;;
1136;SDS011;557;48.466;7.950;2023-06-10T04:38:41;14.33;;;13.33;;
1136;SDS011;557;48.466;7.950;2023-06-10T04:41:28;14.63;;;13.50;;
1136;SDS011;557;48.466;7.950;2023-06-10T04:44:17;15.50;;;14.40;;
1136;SDS011;557;48.466;7.950;2023-06-10T04:47:05;14.83;;;13.73;;
1136;SDS011;557;48.466;7.950;2023-06-10T04:49:53;14.83;;;13.67;;
1136;SDS011;557;48.466;7.950;2023-06-10T04:52:40;14.20;;;13.03;;
1136;SDS011;557;48.466;7.950;2023-06-10T04:55:28;14.67;;;13.50;;
1136;SDS011;557;48.466;7.950;2023-06-10T04:58:15;15.13;;;13.93;;
1136;SDS011;557;48.466;7.950;2023-06-10T05:01:04;14.77;;;13.80;;
1136;SDS011;557;48.466;7.950;2023-06-10T05:03:51;15.63;;;14.50;;
1136;SDS011;557;48.466;7.950;2023-06-10T05:06:39;14.40;;;13.40;;
1136;SDS011;557;48.466;7.950;2023-06-10T05:09:26;15.07;;;14.07;;
1136;SDS011;557;48.466;7.950;2023-06-10T05:12:13;15.30;;;14.40;;
1136;SDS011;557;48.466;7.950;2023-06-10T05:15:01;17.23;;;16.13;;
1136;SDS011;557;48.466;7.950;2023-06-10T05:17:50;16.30;;;15.30;;
1136;SDS011;557;48.466;7.950;2023-06-10T05:20:37;17.23;;;15.90;;
1136;SDS011;557;48.466;7.950;2023-06-10T05:23:25;17.03;;;15.93;;
1136;SDS011;557;48.466;7.950;2023-06-10T05:26:12;16.90;;;15.80;;
1136;SDS011;557;48.466;7.950;2023-06-10T05:28:59;17.83;;;16.63;;
1136;SDS011;557;48.466;7.950;2023-06-10T05:31:46;16.93;;;15.83;;
1136;SDS011;557;48.466;7.950;2023-06-10T05:34:35;17.60;;;16.50;;
1136;SDS011;557;48.466;7.950;2023-06-10T05:37:22;17.10;;;16.00;;
1136;SDS011;557;48.466;7.950;2023-06-10T05:40:11;16.87;;;15.77;;
1136;SDS011;557;48.466;7.950;2023-06-10T05:42:58;17.63;;;16.47;;
1136;SDS011;557;48.466;7.950;2023-06-10T05:45:45;17.10;;;16.00;;
1136;SDS011;557;48.466;7.950;2023-06-10T05:48:33;17.63;;;16.53;;
1136;SDS011;557;48.466;7.950;2023-06-10T05:51:21;17.33;;;16.23;;
1136;SDS011;557;48.466;7.950;2023-06-10T05:54:09;17.60;;;16.40;;
1136;SDS011;557;48.466;7.950;2023-06-10T05:56:56;17.10;;;16.00;;
1136;SDS011;557;48.466;7.950;2023-06-10T05:59:44;18.87;;;17.67;;
1136;SDS011;557;48.466;7.950;2023-06-10T06:02:31;18.53;;;17.33;;
1136;SDS011;557;48.466;7.950;2023-06-10T06:05:18;18.13;;;16.77;;
1136;SDS011;557;48.466;7.950;2023-06-10T06:08:07;18.70;;;17.50;;
1136;SDS011;557;48.466;7.950;2023-06-10T06:10:54;19.20;;;18.00;;
1136;SDS011;557;48.466;7.950;2023-06-10T06:13:42;19.33;;;18.03;;
1136;SDS011;557;48.466;7.950;2023-06-10T06:16:29;19.53;;;18.33;;
1136;SDS011;557;48.466;7.950;2023-06-10T06:19:16;19.73;;;18.30;;
1136;SDS011;557;48.466;7.950;2023-06-10T06:22:04;19.17;;;17.97;;
1136;SDS011;557;48.466;7.950;2023-06-10T06:24:53;19.27;;;17.97;;
1136;SDS011;557;48.466;7.950;2023-06-10T06:27:40;19.90;;;18.70;;
1136;SDS011;557;48.466;7.950;2023-06-10T06:30:27;19.23;;;18.03;;
1136;SDS011;557;48.466;7.950;2023-06-10T06:33:15;19.83;;;18.57;;
1136;SDS011;557;48.466;7.950;2023-06-10T06:36:02;20.30;;;19.00;;
1136;SDS011;557;48.466;7.950;2023-06-10T06:38:50;20.23;;;19.03;;
1136;SDS011;557;48.466;7.950;2023-06-10T06:41:38;20.57;;;19.30;;
1136;SDS011;557;48.466;7.950;2023-06-10T06:44:26;21.67;;;20.30;;
1136;SDS011;557;48.466;7.950;2023-06-10T06:47:13;19.53;;;18.40;;
1136;SDS011;557;48.466;7.950;2023-06-10T06:50:03;21.07;;;19.60;;
1136;SDS011;557;48.466;7.950;2023-06-10T06:52:51;21.83;;;20.23;;
1136;SDS011;557;48.466;7.950;2023-06-10T06:55:38;20.67;;;19.37;;
1136;SDS011;557;48.466;7.950;2023-06-10T06:58:27;21.07;;;19.77;;
1136;SDS011;557;48.466;7.950;2023-06-10T07:01:14;20.40;;;19.13;;
1136;SDS011;557;48.466;7.950;2023-06-10T07:04:01;20.63;;;19.27;;
1136;SDS011;557;48.466;7.950;2023-06-10T07:06:49;21.70;;;20.30;;
1136;SDS011;557;48.466;7.950;2023-06-10T07:09:36;20.63;;;19.43;;
1136;SDS011;557;48.466;7.950;2023-06-10T07:12:24;20.63;;;19.43;;
1136;SDS011;557;48.466;7.950;2023-06-10T07:15:13;21.27;;;19.97;;
1136;SDS011;557;48.466;7.950;2023-06-10T07:18:00;21.87;;;20.50;;
1136;SDS011;557;48.466;7.950;2023-06-10T07:20:48;22.27;;;20.87;;
1136;SDS011;557;48.466;7.950;2023-06-10T07:23:35;22.80;;;21.50;;
1136;SDS011;557;48.466;7.950;2023-06-10T07:26:22;23.03;;;21.40;;
1136;SDS011;557;48.466;7.950;2023-06-10T07:29:11;23.40;;;21.80;;
1136;SDS011;557;48.466;7.950;2023-06-10T07:31:59;25.40;;;23.70;;
1136;SDS011;557;48.466;7.950;2023-06-10T07:34:47;25.13;;;23.47;;
1136;SDS011;557;48.466;7.950;2023-06-10T07:37:34;24.07;;;22.60;;
1136;SDS011;557;48.466;7.950;2023-06-10T07:40:21;23.33;;;21.83;;
1136;SDS011;557;48.466;7.950;2023-06-10T07:43:09;24.67;;;22.98;;
1136;SDS011;557;48.466;7.950;2023-06-10T07:45:56;25.67;;;24.07;;
1136;SDS011;557;48.466;7.950;2023-06-10T07:48:45;25.60;;;23.83;;
1136;SDS011;557;48.466;7.950;2023-06-10T07:51:32;26.20;;;24.50;;
1136;SDS011;557;48.466;7.950;2023-06-10T07:54:19;25.80;;;24.20;;
1136;SDS011;557;48.466;7.950;2023-06-10T07:57:07;23.50;;;21.90;;
1136;SDS011;557;48.466;7.950;2023-06-10T07:59:54;24.23;;;22.67;;
1136;SDS011;557;48.466;7.950;2023-06-10T08:02:43;24.33;;;22.83;;
1136;SDS011;557;48.466;7.950;2023-06-10T08:05:31;24.03;;;22.53;;
1136;SDS011;557;48.466;7.950;2023-06-10T08:08:19;25.77;;;23.87;;
1136;SDS011;557;48.466;7.950;2023-06-10T08:11:06;26.13;;;24.47;;
1136;SDS011;557;48.466;7.950;2023-06-10T08:13:53;24.42;;;22.92;;
1136;SDS011;557;48.466;7.950;2023-06-10T08:16:41;26.85;;;25.15;;
1136;SDS011;557;48.466;7.950;2023-06-10T08:19:29;26.23;;;24.52;;
1136;SDS011;557;48.466;7.950;2023-06-10T08:22:19;26.80;;;25.10;;
1136;SDS011;557;48.466;7.950;2023-06-10T08:25:08;26.20;;;24.35;;
1136;SDS011;557;48.466;7.950;2023-06-10T08:27:55;24.83;;;23.13;;
1136;SDS011;557;48.466;7.950;2023-06-10T08:33:38;24.20;;;22.80;;
1136;SDS011;557;48.466;7.950;2023-06-10T08:36:25;26.37;;;24.67;;
1136;SDS011;557;48.466;7.950;2023-06-10T08:39:14;23.80;;;22.30;;
1136;SDS011;557;48.466;7.950;2023-06-10T08:42:04;24.90;;;23.30;;
1136;SDS011;557;48.466;7.950;2023-06-10T08:44:57;27.15;;;25.35;;
1136;SDS011;557;48.466;7.950;2023-06-10T08:47:45;26.88;;;25.05;;
1136;SDS011;557;48.466;7.950;2023-06-10T08:50:34;27.90;;;26.00;;
1136;SDS011;557;48.466;7.950;2023-06-10T08:53:23;29.58;;;27.60;;
1136;SDS011;557;48.466;7.950;2023-06-10T08:56:13;27.67;;;25.98;;
1136;SDS011;557;48.466;7.950;2023-06-10T08:59:02;26.98;;;25.23;;
1136;SDS011;557;48.466;7.950;2023-06-10T09:01:50;27.92;;;26.13;;
1136;SDS011;557;48.466;7.950;2023-06-10T09:04:38;28.15;;;26.30;;
1136;SDS011;557;48.466;7.950;2023-06-10T09:07:29;27.00;;;25.30;;
1136;SDS011;557;48.466;7.950;2023-06-10T09:10:20;26.67;;;24.98;;
1136;SDS011;557;48.466;7.950;2023-06-10T09:13:09;27.63;;;25.90;;
1136;SDS011;557;48.466;7.950;2023-06-10T09:15:56;26.75;;;25.15;;
1136;SDS011;557;48.466;7.950;2023-06-10T09:18:47;27.40;;;25.60;;
1136;SDS011;557;48.466;7.950;2023-06-10T09:21:40;27.52;;;25.75;;
1136;SDS011;557;48.466;7.950;2023-06-10T09:24:27;29.05;;;27.25;;
1136;SDS011;557;48.466;7.950;2023-06-10T09:27:16;29.58;;;27.67;;
1136;SDS011;557;48.466;7.950;2023-06-10T09:30:06;27.65;;;25.85;;
1136;SDS011;557;48.466;7.950;2023-06-10T09:32:54;28.30;;;26.50;;
1136;SDS011;557;48.466;7.950;2023-06-10T09:35:46;28.55;;;26.45;;
1136;SDS011;557;48.466;7.950;2023-06-10T09:38:34;28.48;;;26.67;;
1136;SDS011;557;48.466;7.950;2023-06-10T09:41:22;28.35;;;26.52;;
1136;SDS011;557;48.466;7.950;2023-06-10T09:44:19;27.90;;;26.00;;
1136;SDS011;557;48.466;7.950;2023-06-10T09:47:09;28.92;;;27.02;;
1136;SDS011;557;48.466;7.950;2023-06-10T09:50:07;28.63;;;26.83;;
1136;SDS011;557;48.466;7.950;2023-06-10T09:52:54;28.05;;;26.23;;
1136;SDS011;557;48.466;7.950;2023-06-10T09:55:43;29.10;;;27.20;;
1136;SDS011;557;48.466;7.950;2023-06-10T09:58:37;27.50;;;25.80;;
1136;SDS011;557;48.466;7.950;2023-06-10T10:01:27;27.48;;;25.77;;
1136;SDS011;557;48.466;7.950;2023-06-10T10:04:24;27.27;;;25.50;;
1136;SDS011;557;48.466;7.950;2023-06-10T10:07:11;26.92;;;25.15;;
1136;SDS011;557;48.466;7.950;2023-06-10T10:09:59;27.95;;;26.15;;
1136;SDS011;557;48.466;7.950;2023-06-10T10:12:47;27.10;;;25.40;;
1136;SDS011;557;48.466;7.950;2023-06-10T10:15:37;26.25;;;24.48;;
1136;SDS011;557;48.466;7.950;2023-06-10T10:18:27;25.67;;;24.08;;
1136;SDS011;557;48.466;7.950;2023-06-10T10:21:18;26.73;;;25.02;;
1136;SDS011;557;48.466;7.950;2023-06-10T10:24:12;27.25;;;25.52;;
1136;SDS011;557;48.466;7.950;2023-06-10T10:27:04;27.52;;;25.67;;
1136;SDS011;557;48.466;7.950;2023-06-10T10:29:58;25.10;;;23.60;;
1136;SDS011;557;48.466;7.950;2023-06-10T10:32:51;25.23;;;23.70;;
1136;SDS011;557;48.466;7.950;2023-06-10T10:35:43;26.05;;;24.35;;
1136;SDS011;557;48.466;7.950;2023-06-10T10:38:33;25.08;;;23.40;;
1136;SDS011;557;48.466;7.950;2023-06-10T10:41:22;24.10;;;22.70;;
1136;SDS011;557;48.466;7.950;2023-06-10T10:44:11;24.75;;;23.25;;
1136;SDS011;557;48.466;7.950;2023-06-10T10:47:02;24.25;;;22.85;;
1136;SDS011;557;48.466;7.950;2023-06-10T10:49:50;24.98;;;23.40;;
1136;SDS011;557;48.466;7.950;2023-06-10T10:52:46;24.83;;;23.33;;
1136;SDS011;557;48.466;7.950;2023-06-10T10:55:41;23.65;;;22.25;;
1136;SDS011;557;48.466;7.950;2023-06-10T10:58:28;23.70;;;22.35;;
1136;SDS011;557;48.466;7.950;2023-06-10T11:01:17;23.98;;;22.58;;
1136;SDS011;557;48.466;7.950;2023-06-10T11:04:06;23.40;;;22.00;;
1136;SDS011;557;48.466;7.950;2023-06-10T11:06:53;24.65;;;23.23;;
1136;SDS011;557;48.466;7.950;2023-06-10T11:09:57;23.67;;;22.38;;
1136;SDS011;557;48.466;7.950;2023-06-10T11:12:51;23.25;;;21.95;;
1136;SDS011;557;48.466;7.950;2023-06-10T11:15:40;23.00;;;21.70;;
1136;SDS011;557;48.466;7.950;2023-06-10T11:18:34;23.65;;;22.23;;
1136;SDS011;557;48.466;7.950;2023-06-10T11:21:25;23.00;;;21.70;;
1136;SDS011;557;48.466;7.950;2023-06-10T11:24:13;23.60;;;22.20;;
1136;SDS011;557;48.466;7.950;2023-06-10T11:27:14;23.55;;;22.15;;
1136;SDS011;557;48.466;7.950;2023-06-10T11:30:19;24.90;;;23.40;;
1136;SDS011;557;48.466;7.950;2023-06-10T11:33:07;23.58;;;22.17;;
1136;SDS011;557;48.466;7.950;2023-06-10T11:35:55;23.15;;;21.75;;
1136;SDS011;557;48.466;7.950;2023-06-10T11:38:44;23.48;;;22.13;;
1136;SDS011;557;48.466;7.950;2023-06-10T11:41:31;23.95;;;22.55;;
1136;SDS011;557;48.466;7.950;2023-06-10T11:44:20;23.23;;;21.92;;
1136;SDS011;557;48.466;7.950;2023-06-10T11:47:09;24.40;;;23.00;;
1136;SDS011;557;48.466;7.950;2023-06-10T11:49:57;23.88;;;22.48;;
1136;SDS011;557;48.466;7.950;2023-06-10T11:52:45;23.98;;;22.58;;
1136;SDS011;557;48.466;7.950;2023-06-10T11:55:41;24.00;;;22.60;;
1136;SDS011;557;48.466;7.950;2023-06-10T11:58:30;24.25;;;22.85;;
1136;SDS011;557;48.466;7.950;2023-06-10T12:01:19;23.92;;;22.52;;
1136;SDS011;557;48.466;7.950;2023-06-10T12:04:09;24.70;;;23.20;;
1136;SDS011;557;48.466;7.950;2023-06-10T12:06:58;24.10;;;22.75;;
1136;SDS011;557;48.466;7.950;2023-06-10T12:09:45;22.70;;;21.40;;
1136;SDS011;557;48.466;7.950;2023-06-10T12:12:34;23.45;;;22.05;;
1136;SDS011;557;48.466;7.950;2023-06-10T12:15:24;23.65;;;22.25;;
1136;SDS011;557;48.466;7.950;2023-06-10T12:18:15;23.60;;;22.25;;
1136;SDS011;557;48.466;7.950;2023-06-10T12:21:16;23.13;;;21.63;;
1136;SDS011;557;48.466;7.950;2023-06-10T12:24:07;23.33;;;22.02;;
1136;SDS011;557;48.466;7.950;2023-06-10T12:26:56;23.17;;;21.88;;
1136;SDS011;557;48.466;7.950;2023-06-10T12:29:50;23.58;;;22.17;;
1136;SDS011;557;48.466;7.950;2023-06-10T12:32:40;22.08;;;20.88;;
1136;SDS011;557;48.466;7.950;2023-06-10T12:35:29;22.85;;;21.55;;
1136;SDS011;557;48.466;7.950;2023-06-10T12:38:22;25.15;;;23.75;;
1136;SDS011;557;48.466;7.950;2023-06-10T12:41:12;22.75;;;21.45;;
1136;SDS011;557;48.466;7.950;2023-06-10T12:44:00;22.85;;;21.55;;
1136;SDS011;557;48.466;7.950;2023-06-10T12:46:53;24.30;;;22.90;;
1136;SDS011;557;48.466;7.950;2023-06-10T12:49:41;21.77;;;20.48;;
1136;SDS011;557;48.466;7.950;2023-06-10T12:52:28;22.77;;;21.48;;
1136;SDS011;557;48.466;7.950;2023-06-10T12:55:17;22.75;;;21.40;;
1136;SDS011;557;48.466;7.950;2023-06-10T12:58:04;23.00;;;21.70;;
1136;SDS011;557;48.466;7.950;2023-06-10T13:00:52;23.20;;;21.90;;
1136;SDS011;557;48.466;7.950;2023-06-10T13:03:39;22.77;;;21.48;;
1136;SDS011;557;48.466;7.950;2023-06-10T13:06:26;24.48;;;22.88;;
1136;SDS011;557;48.466;7.950;2023-06-10T13:09:14;23.00;;;21.60;;
1136;SDS011;557;48.466;7.950;2023-06-10T13:12:04;22.05;;;20.75;;
1136;SDS011;557;48.466;7.950;2023-06-10T13:14:52;22.52;;;21.23;;
1136;SDS011;557;48.466;7.950;2023-06-10T13:17:40;23.63;;;22.08;;
1136;SDS011;557;48.466;7.950;2023-06-10T13:20:27;23.55;;;22.15;;
1136;SDS011;557;48.466;7.950;2023-06-10T13:23:14;22.20;;;20.90;;
1136;SDS011;557;48.466;7.950;2023-06-10T13:26:02;22.23;;;20.95;;
1136;SDS011;557;48.466;7.950;2023-06-10T13:28:50;23.20;;;21.90;;
1136;SDS011;557;48.466;7.950;2023-06-10T13:31:38;23.02;;;21.73;;
1136;SDS011;557;48.466;7.950;2023-06-10T13:34:25;23.30;;;21.90;;
1136;SDS011;557;48.466;7.950;2023-06-10T13:37:13;23.85;;;22.38;;
1136;SDS011;557;48.466;7.950;2023-06-10T13:40:01;23.05;;;21.67;;
1136;SDS011;557;48.466;7.950;2023-06-10T13:42:48;25.42;;;23.83;;
1136;SDS011;557;48.466;7.950;2023-06-10T13:45:39;23.73;;;22.33;;
1136;SDS011;557;48.466;7.950;2023-06-10T13:48:26;24.10;;;22.63;;
1136;SDS011;557;48.466;7.950;2023-06-10T13:51:14;23.98;;;22.58;;
1136;SDS011;557;48.466;7.950;2023-06-10T13:54:01;23.58;;;22.27;;
1136;SDS011;557;48.466;7.950;2023-06-10T13:56:49;23.85;;;22.48;;
1136;SDS011;557;48.466;7.950;2023-06-10T13:59:36;24.70;;;23.30;;
1136;SDS011;557;48.466;7.950;2023-06-10T14:02:25;23.58;;;22.25;;
1136;SDS011;557;48.466;7.950;2023-06-10T14:05:13;23.38;;;21.98;;
1136;SDS011;557;48.466;7.950;2023-06-10T14:08:00;24.63;;;23.08;;
1136;SDS011;557;48.466;7.950;2023-06-10T14:10:47;24.10;;;22.70;;
1136;SDS011;557;48.466;7.950;2023-06-10T14:13:36;23.70;;;22.30;;
1136;SDS011;557;48.466;7.950;2023-06-10T14:16:24;23.30;;;22.00;;
1136;SDS011;557;48.466;7.950;2023-06-10T14:19:12;24.77;;;23.27;;
1136;SDS011;557;48.466;7.950;2023-06-10T14:22:00;23.48;;;22.10;;
1136;SDS011;557;48.466;7.950;2023-06-10T14:24:48;24.60;;;23.10;;
1136;SDS011;557;48.466;7.950;2023-06-10T14:27:35;23.33;;;21.92;;
1136;SDS011;557;48.466;7.950;2023-06-10T14:30:23;22.75;;;21.45;;
1136;SDS011;557;48.466;7.950;2023-06-10T14:33:10;23.52;;;22.00;;
1136;SDS011;557;48.466;7.950;2023-06-10T14:35:59;24.73;;;23.23;;
1136;SDS011;557;48.466;7.950;2023-06-10T14:38:46;26.58;;;25.08;;
1136;SDS011;557;48.466;7.950;2023-06-10T14:41:33;23.85;;;22.55;;
1136;SDS011;557;48.466;7.950;2023-06-10T14:44:21;24.20;;;22.70;;
1136;SDS011;557;48.466;7.950;2023-06-10T14:47:08;24.08;;;22.67;;
1136;SDS011;557;48.466;7.950;2023-06-10T14:49:55;23.95;;;22.58;;
1136;SDS011;557;48.466;7.950;2023-06-10T14:52:44;23.75;;;22.35;;
1136;SDS011;557;48.466;7.950;2023-06-10T14:55:32;24.55;;;23.15;;
1136;SDS011;557;48.466;7.950;2023-06-10T14:58:19;24.05;;;22.65;;
1136;SDS011;557;48.466;7.950;2023-06-10T15:01:06;23.70;;;22.30;;
1136;SDS011;557;48.466;7.950;2023-06-10T15:03:54;23.35;;;22.05;;
1136;SDS011;557;48.466;7.950;2023-06-10T15:06:41;22.30;;;20.95;;
1136;SDS011;557;48.466;7.950;2023-06-10T15:09:30;23.75;;;22.13;;
1136;SDS011;557;48.466;7.950;2023-06-10T15:12:17;24.00;;;22.60;;
1136;SDS011;557;48.466;7.950;2023-06-10T15:15:05;24.15;;;22.85;;
1136;SDS011;557;48.466;7.950;2023-06-10T15:17:53;24.48;;;22.92;;
1136;SDS011;557;48.466;7.950;2023-06-10T15:20:41;23.98;;;22.58;;
1136;SDS011;557;48.466;7.950;2023-06-10T15:23:28;24.38;;;22.98;;
1136;SDS011;557;48.466;7.950;2023-06-10T15:26:17;25.25;;;23.75;;
1136;SDS011;557;48.466;7.950;2023-06-10T15:29:04;24.17;;;22.83;;
1136;SDS011;557;48.466;7.950;2023-06-10T15:31:52;26.83;;;25.33;;
1136;SDS011;557;48.466;7.950;2023-06-10T15:34:40;25.27;;;23.75;;
1136;SDS011;557;48.466;7.950;2023-06-10T15:37:29;25.35;;;23.95;;
1136;SDS011;557;48.466;7.950;2023-06-10T15:40:16;26.92;;;25.42;;
1136;SDS011;557;48.466;7.950;2023-06-10T15:43:05;24.25;;;22.80;;
1136;SDS011;557;48.466;7.950;2023-06-10T15:45:52;24.52;;;23.13;;
1136;SDS011;557;48.466;7.950;2023-06-10T15:48:40;24.20;;;22.80;;
1136;SDS011;557;48.466;7.950;2023-06-10T15:51:28;24.05;;;22.65;;
1136;SDS011;557;48.466;7.950;2023-06-10T15:54:15;23.63;;;22.13;;
1136;SDS011;557;48.466;7.950;2023-06-10T15:57:02;24.27;;;22.88;;
1136;SDS011;557;48.466;7.950;2023-06-10T15:59:52;23.85;;;22.45;;
1136;SDS011;557;48.466;7.950;2023-06-10T16:02:40;24.10;;;22.77;;
1136;SDS011;557;48.466;7.950;2023-06-10T16:05:27;24.10;;;22.60;;
1136;SDS011;557;48.466;7.950;2023-06-10T16:08:14;25.17;;;23.77;;
1136;SDS011;557;48.466;7.950;2023-06-10T16:11:02;25.38;;;23.88;;
1136;SDS011;557;48.466;7.950;2023-06-10T16:13:50;24.85;;;23.45;;
1136;SDS011;557;48.466;7.950;2023-06-10T16:16:39;26.13;;;24.52;;
1136;SDS011;557;48.466;7.950;2023-06-10T16:19:26;24.45;;;23.05;;
1136;SDS011;557;48.466;7.950;2023-06-10T16:22:14;25.25;;;23.75;;
1136;SDS011;557;48.466;7.950;2023-06-10T16:25:01;25.15;;;23.65;;
1136;SDS011;557;48.466;7.950;2023-06-10T16:27:48;29.33;;;27.52;;
1136;SDS011;557;48.466;7.950;2023-06-10T16:30:36;24.52;;;23.13;;
1136;SDS011;557;48.466;7.950;2023-06-10T16:33:24;24.55;;;23.15;;
1136;SDS011;557;48.466;7.950;2023-06-10T16:36:12;26.17;;;24.60;;
1136;SDS011;557;48.466;7.950;2023-06-10T16:38:59;24.42;;;23.02;;
1136;SDS011;557;48.466;7.950;2023-06-10T16:41:46;25.40;;;23.90;;
1136;SDS011;557;48.466;7.950;2023-06-10T16:44:33;24.80;;;23.30;;
1136;SDS011;557;48.466;7.950;2023-06-10T16:47:21;24.35;;;22.95;;
1136;SDS011;557;48.466;7.950;2023-06-10T16:50:10;24.67;;;23.27;;
1136;SDS011;557;48.466;7.950;2023-06-10T16:52:58;24.92;;;23.52;;
1136;SDS011;557;48.466;7.950;2023-06-10T16:55:45;24.25;;;22.85;;
1136;SDS011;557;48.466;7.950;2023-06-10T16:58:32;25.48;;;24.00;;
1136;SDS011;557;48.466;7.950;2023-06-10T17:01:20;24.50;;;23.00;;
1136;SDS011;557;48.466;7.950;2023-06-10T17:04:07;25.58;;;24.08;;
1136;SDS011;557;48.466;7.950;2023-06-10T17:06:56;25.23;;;23.75;;
1136;SDS011;557;48.466;7.950;2023-06-10T17:09:43;25.55;;;23.90;;
1136;SDS011;557;48.466;7.950;2023-06-10T17:12:30;24.77;;;23.27;;